createdAt,value
2018-07-14T00:01:06.496Z,16.02
2018-07-14T00:03:36.215Z,15.97
2018-07-14T00:06:05.980Z,15.98
2018-07-14T00:08:35.486Z,15.98
2018-07-14T00:11:05.075Z,16.04
2018-07-14T00:13:34.723Z,16.06
2018-07-14T00:16:04.787Z,16.08
2018-07-14T00:18:35.470Z,16.04
2018-07-14T00:21:05.377Z,15.97
2018-07-14T00:23:34.916Z,15.87
2018-07-14T00:26:04.594Z,15.80
2018-07-14T00:28:34.898Z,15.83
2018-07-14T00:31:04.504Z,15.76
2018-07-14T00:33:34.203Z,15.78
2018-07-14T00:36:04.238Z,15.73
2018-07-14T00:38:33.923Z,15.79
2018-07-14T00:41:03.810Z,15.70
2018-07-14T00:43:33.781Z,15.68
2018-07-14T00:46:03.896Z,15.72
2018-07-14T00:48:33.511Z,15.75
2018-07-14T00:51:03.325Z,15.77
2018-07-14T00:53:33.643Z,15.84
2018-07-14T00:56:03.524Z,15.83
2018-07-14T00:58:33.200Z,15.84
2018-07-14T01:01:02.676Z,15.80
2018-07-14T01:03:32.107Z,15.85
2018-07-14T01:06:01.825Z,15.89
2018-07-14T01:08:31.495Z,15.82
2018-07-14T01:11:01.108Z,15.77
2018-07-14T01:13:31.098Z,15.80
2018-07-14T01:16:00.914Z,15.84
2018-07-14T01:18:30.550Z,15.84
2018-07-14T01:21:00.344Z,15.89
2018-07-14T01:23:29.818Z,15.93
2018-07-14T01:25:59.472Z,15.93
2018-07-14T01:28:30.633Z,15.88
2018-07-14T01:31:00.536Z,15.93
2018-07-14T01:33:30.298Z,15.91
2018-07-14T01:36:00.138Z,15.84
2018-07-14T01:38:30.079Z,15.96
2018-07-14T01:40:59.904Z,15.90
2018-07-14T01:43:29.510Z,15.91
2018-07-14T01:45:59.109Z,15.98
2018-07-14T01:48:28.683Z,15.98
2018-07-14T01:50:59.525Z,15.92
2018-07-14T01:53:31.995Z,15.87
2018-07-14T01:56:02.700Z,15.88
2018-07-14T01:58:32.689Z,15.87
2018-07-14T02:01:02.423Z,15.93
2018-07-14T02:03:32.577Z,16.00
2018-07-14T02:06:02.512Z,15.97
2018-07-14T02:08:32.498Z,16.13
2018-07-14T02:11:03.081Z,16.21
2018-07-14T02:13:32.976Z,16.20
2018-07-14T02:16:02.660Z,16.18
2018-07-14T02:18:32.676Z,16.13
2018-07-14T02:21:02.434Z,16.28
2018-07-14T02:23:32.290Z,16.32
2018-07-14T02:26:02.161Z,16.33
2018-07-14T02:28:31.742Z,16.33
2018-07-14T02:31:01.637Z,16.39
2018-07-14T02:33:31.701Z,16.39
2018-07-14T02:36:01.381Z,16.34
2018-07-14T02:38:31.407Z,16.43
2018-07-14T02:41:01.784Z,16.41
2018-07-14T02:43:31.824Z,16.30
2018-07-14T02:46:01.644Z,16.33
2018-07-14T02:48:32.264Z,16.34
2018-07-14T02:51:02.035Z,16.28
2018-07-14T02:53:32.002Z,16.32
2018-07-14T02:56:02.120Z,16.23
2018-07-14T02:58:32.358Z,16.30
2018-07-14T03:01:02.809Z,16.35
2018-07-14T03:03:32.566Z,16.47
2018-07-14T03:06:02.510Z,16.49
2018-07-14T03:08:33.548Z,16.51
2018-07-14T03:11:03.883Z,16.49
2018-07-14T03:13:33.929Z,16.56
2018-07-14T03:16:05.137Z,16.54
2018-07-14T03:18:35.277Z,16.49
2018-07-14T03:21:04.893Z,16.50
2018-07-14T03:23:34.845Z,16.59
2018-07-14T03:26:04.542Z,16.62
2018-07-14T03:28:34.204Z,16.54
2018-07-14T03:31:04.337Z,16.50
2018-07-14T03:33:34.553Z,16.60
2018-07-14T03:36:04.463Z,16.60
2018-07-14T03:38:34.291Z,16.33
2018-07-14T03:41:04.314Z,16.43
2018-07-14T03:43:34.620Z,16.28
2018-07-14T03:46:04.525Z,16.36
2018-07-14T03:48:34.410Z,16.33
2018-07-14T03:51:03.945Z,16.46
2018-07-14T03:53:33.614Z,16.58
2018-07-14T03:56:03.384Z,16.59
2018-07-14T03:58:33.128Z,16.55
2018-07-14T04:01:03.599Z,16.68
2018-07-14T04:03:33.532Z,16.55
2018-07-14T04:06:04.062Z,16.67
2018-07-14T04:08:34.045Z,16.67
2018-07-14T04:11:03.854Z,16.74
2018-07-14T04:13:36.014Z,16.69
2018-07-14T04:16:05.943Z,16.69
2018-07-14T04:18:37.238Z,16.59
2018-07-14T04:21:07.357Z,16.66
2018-07-14T04:23:37.450Z,16.66
2018-07-14T04:26:07.521Z,16.77
2018-07-14T04:28:37.483Z,16.88
2018-07-14T04:31:07.603Z,17.01
2018-07-14T04:33:37.879Z,17.10
2018-07-14T04:36:07.562Z,17.00
2018-07-14T04:38:37.978Z,17.03
2018-07-14T04:41:08.182Z,17.15
2018-07-14T04:43:38.233Z,17.19
2018-07-14T04:46:09.099Z,16.88
2018-07-14T04:48:39.472Z,16.96
2018-07-14T04:51:09.235Z,16.83
2018-07-14T04:53:39.262Z,17.00
2018-07-14T04:56:09.137Z,17.08
2018-07-14T04:58:38.819Z,17.13
2018-07-14T05:01:08.835Z,16.98
2018-07-14T05:03:38.290Z,16.78
2018-07-14T05:06:07.790Z,16.70
2018-07-14T05:08:37.469Z,16.71
2018-07-14T05:11:07.478Z,16.80
2018-07-14T05:13:40.264Z,16.58
2018-07-14T05:16:10.081Z,16.63
2018-07-14T05:18:39.643Z,16.58
2018-07-14T05:21:09.231Z,16.67
2018-07-14T05:23:38.981Z,16.61
2018-07-14T05:26:08.522Z,16.73
2018-07-14T05:28:39.427Z,16.57
2018-07-14T05:31:09.103Z,16.33
2018-07-14T05:33:38.698Z,16.23
2018-07-14T05:36:08.218Z,16.44
2018-07-14T05:38:37.751Z,16.45
2018-07-14T05:41:07.369Z,16.37
2018-07-14T05:43:36.998Z,16.68
2018-07-14T05:46:07.243Z,16.85
2018-07-14T05:48:36.674Z,16.98
2018-07-14T05:51:06.298Z,17.08
2018-07-14T05:53:35.931Z,17.03
2018-07-14T05:56:05.396Z,17.11
2018-07-14T05:58:34.956Z,17.22
2018-07-14T06:01:04.765Z,17.38
2018-07-14T06:03:34.625Z,17.35
2018-07-14T06:06:04.544Z,17.30
2018-07-14T06:08:35.849Z,17.31
2018-07-14T06:11:05.944Z,17.29
2018-07-14T06:13:35.807Z,17.17
2018-07-14T06:16:05.686Z,17.25
2018-07-14T06:18:35.598Z,17.11
2018-07-14T06:21:05.406Z,17.27
2018-07-14T06:23:35.208Z,17.45
2018-07-14T06:26:05.283Z,17.49
2018-07-14T06:28:35.345Z,17.60
2018-07-14T06:31:05.453Z,17.52
2018-07-14T06:33:35.349Z,17.19
2018-07-14T06:36:05.500Z,17.38
2018-07-14T06:38:36.052Z,17.50
2018-07-14T06:41:08.119Z,17.50
2018-07-14T06:43:37.674Z,17.55
2018-07-14T06:46:07.661Z,17.39
2018-07-14T06:48:37.269Z,17.47
2018-07-14T06:51:07.091Z,17.66
2018-07-14T06:53:36.771Z,17.73
2018-07-14T06:56:06.372Z,17.36
2018-07-14T06:58:36.739Z,17.08
2018-07-14T07:01:06.336Z,17.03
2018-07-14T07:03:36.220Z,17.09
2018-07-14T07:06:06.282Z,17.24
2018-07-14T07:08:35.950Z,17.43
2018-07-14T07:11:05.591Z,17.57
2018-07-14T07:13:35.532Z,17.75
2018-07-14T07:16:05.541Z,17.93
2018-07-14T07:18:35.302Z,18.13
2018-07-14T07:21:05.467Z,18.23
2018-07-14T07:23:35.670Z,18.21
2018-07-14T07:26:05.699Z,18.41
2018-07-14T07:28:35.584Z,18.21
2018-07-14T07:31:05.433Z,18.36
2018-07-14T07:33:35.125Z,18.23
2018-07-14T07:36:04.856Z,18.16
2018-07-14T07:38:34.591Z,18.20
2018-07-14T07:41:04.494Z,18.25
2018-07-14T07:43:34.522Z,18.24
2018-07-14T07:46:04.284Z,18.32
2018-07-14T07:48:35.459Z,18.29
2018-07-14T07:51:04.966Z,18.48
2018-07-14T07:53:34.582Z,18.57
2018-07-14T07:56:04.250Z,18.57
2018-07-14T07:58:33.860Z,18.48
2018-07-14T08:01:07.271Z,18.50
2018-07-14T08:03:37.273Z,18.45
2018-07-14T08:06:06.811Z,18.55
2018-07-14T08:08:36.850Z,18.71
2018-07-14T08:11:07.297Z,18.86
2018-07-14T08:13:37.049Z,18.93
2018-07-14T08:16:06.972Z,18.87
2018-07-14T08:18:36.954Z,18.78
2018-07-14T08:21:06.929Z,18.64
2018-07-14T08:23:37.952Z,18.43
2018-07-14T08:26:08.131Z,18.45
2018-07-14T08:28:37.754Z,18.47
2018-07-14T08:31:07.700Z,18.43
2018-07-14T08:33:38.784Z,18.49
2018-07-14T08:36:10.496Z,18.61
2018-07-14T08:38:40.405Z,18.44
2018-07-14T08:41:12.550Z,18.19
2018-07-14T08:43:43.103Z,17.81
2018-07-14T08:46:12.496Z,17.71
2018-07-14T08:48:42.640Z,17.67
2018-07-14T08:51:12.033Z,17.48
2018-07-14T08:53:41.319Z,17.58
2018-07-14T08:56:10.955Z,17.64
2018-07-14T08:58:40.289Z,17.72
2018-07-14T09:01:09.480Z,17.76
2018-07-14T09:03:39.273Z,17.82
2018-07-14T09:06:08.962Z,17.83
2018-07-14T09:08:39.244Z,17.83
2018-07-14T09:11:09.574Z,17.80
2018-07-14T09:13:39.172Z,17.96
2018-07-14T09:16:08.830Z,18.06
2018-07-14T09:18:38.550Z,18.14
2018-07-14T09:21:08.451Z,18.23
2018-07-14T09:23:38.048Z,18.26
2018-07-14T09:26:07.704Z,18.36
2018-07-14T09:28:37.552Z,18.34
2018-07-14T09:31:08.336Z,18.40
2018-07-14T09:33:39.309Z,18.53
2018-07-14T09:36:08.880Z,18.78
2018-07-14T09:38:40.304Z,18.90
2018-07-14T09:41:10.049Z,19.01
2018-07-14T09:43:39.990Z,19.08
2018-07-14T09:46:09.559Z,19.20
2018-07-14T09:48:39.531Z,19.27
2018-07-14T09:51:09.427Z,19.48
2018-07-14T09:53:39.128Z,19.60
2018-07-14T09:56:08.659Z,19.67
2018-07-14T09:58:38.279Z,19.67
2018-07-14T10:01:10.816Z,19.79
2018-07-14T10:03:40.489Z,19.87
2018-07-14T10:06:10.486Z,19.84
2018-07-14T10:08:40.060Z,19.92
2018-07-14T10:11:09.659Z,19.85
2018-07-14T10:13:41.163Z,19.85
2018-07-14T10:16:11.416Z,19.82
2018-07-14T10:18:41.367Z,19.84
2018-07-14T10:21:12.002Z,19.94
2018-07-14T10:23:43.154Z,19.93
2018-07-14T10:26:13.013Z,19.66
2018-07-14T10:28:42.466Z,19.77
2018-07-14T10:31:12.345Z,19.86
2018-07-14T10:33:43.227Z,19.93
2018-07-14T10:36:13.064Z,19.94
2018-07-14T10:38:42.861Z,19.98
2018-07-14T10:41:12.990Z,20.14
2018-07-14T10:43:42.633Z,20.17
2018-07-14T10:46:12.303Z,20.18
2018-07-14T10:48:42.354Z,20.24
2018-07-14T10:51:13.185Z,20.21
2018-07-14T10:53:42.782Z,20.19
2018-07-14T10:56:12.307Z,20.19
2018-07-14T10:58:42.381Z,20.11
2018-07-14T11:01:21.120Z,20.16
2018-07-14T11:03:53.162Z,20.10
2018-07-14T11:06:22.465Z,19.98
2018-07-14T11:08:51.803Z,19.88
2018-07-14T11:11:21.222Z,19.94
2018-07-14T11:13:52.651Z,19.85
2018-07-14T11:16:22.354Z,19.88
2018-07-14T11:18:51.688Z,19.71
2018-07-14T11:21:21.108Z,19.73
2018-07-14T11:23:51.914Z,19.69
2018-07-14T11:26:22.050Z,19.45
2018-07-14T11:28:51.900Z,19.47
2018-07-14T11:31:21.204Z,19.43
2018-07-14T11:33:50.533Z,19.40
2018-07-14T11:36:19.935Z,19.52
2018-07-14T11:38:49.645Z,19.48
2018-07-14T11:41:19.054Z,19.42
2018-07-14T11:43:48.486Z,19.60
2018-07-14T11:46:17.909Z,19.94
2018-07-14T11:48:47.195Z,20.22
2018-07-14T11:51:16.590Z,20.49
2018-07-14T11:53:45.976Z,20.84
2018-07-14T11:56:15.627Z,21.27
2018-07-14T11:58:45.376Z,21.21
2018-07-14T12:01:14.830Z,21.07
2018-07-14T12:03:44.475Z,20.73
2018-07-14T12:06:14.059Z,20.64
2018-07-14T12:08:43.993Z,20.60
2018-07-14T12:11:13.533Z,20.72
2018-07-14T12:13:43.172Z,20.83
2018-07-14T12:16:14.546Z,20.89
2018-07-14T12:18:44.100Z,20.75
2018-07-14T12:21:14.353Z,20.62
2018-07-14T12:23:44.149Z,20.64
2018-07-14T12:26:13.896Z,20.60
2018-07-14T12:28:43.741Z,20.63
2018-07-14T12:31:13.554Z,20.48
2018-07-14T12:33:44.000Z,20.83
2018-07-14T12:36:15.028Z,21.21
2018-07-14T12:38:44.855Z,21.25
2018-07-14T12:41:15.162Z,21.15
2018-07-14T12:43:45.027Z,21.17
2018-07-14T12:46:16.298Z,20.94
2018-07-14T12:48:46.575Z,20.90
2018-07-14T12:51:16.153Z,21.07
2018-07-14T12:53:47.013Z,21.38
2018-07-14T12:56:16.461Z,21.52
2018-07-14T12:58:45.911Z,21.63
2018-07-14T13:01:15.299Z,22.01
2018-07-14T13:03:44.913Z,22.42
2018-07-14T13:06:15.459Z,22.35
2018-07-14T13:08:45.303Z,22.34
2018-07-14T13:11:18.375Z,22.47
2018-07-14T13:13:47.902Z,22.37
2018-07-14T13:16:30.668Z,22.17
2018-07-14T13:19:02.653Z,21.99
2018-07-14T13:21:33.370Z,21.78
2018-07-14T13:24:06.709Z,21.74
2018-07-14T13:26:37.486Z,21.66
2018-07-14T13:29:08.532Z,21.56
2018-07-14T13:31:38.539Z,21.43
2018-07-14T13:34:08.275Z,21.39
2018-07-14T13:36:38.473Z,21.06
2018-07-14T13:39:09.365Z,21.13
2018-07-14T13:41:39.435Z,21.19
2018-07-14T13:44:09.719Z,21.22
2018-07-14T13:46:41.156Z,21.15
2018-07-14T13:49:10.941Z,20.92
2018-07-14T13:51:40.880Z,20.72
2018-07-14T13:54:11.106Z,20.68
2018-07-14T13:56:40.791Z,20.52
2018-07-14T13:59:10.662Z,20.45
2018-07-14T14:01:41.241Z,20.44
2018-07-14T14:04:11.240Z,20.50
2018-07-14T14:06:41.397Z,20.49
2018-07-14T14:09:12.165Z,20.60
2018-07-14T14:11:42.305Z,20.84
2018-07-14T14:14:13.080Z,20.79
2018-07-14T14:16:42.966Z,20.77
2018-07-14T14:19:12.885Z,20.85
2018-07-14T14:21:42.627Z,20.70
2018-07-14T14:24:12.082Z,20.70
2018-07-14T14:26:42.040Z,20.80
2018-07-14T14:29:12.257Z,20.84
2018-07-14T14:31:42.510Z,20.96
2018-07-14T14:34:12.028Z,20.85
2018-07-14T14:36:42.100Z,20.71
2018-07-14T14:39:11.537Z,20.80
2018-07-14T14:41:41.178Z,20.64
2018-07-14T14:44:11.043Z,20.79
2018-07-14T14:46:40.858Z,20.93
2018-07-14T14:49:12.357Z,21.13
2018-07-14T14:51:41.678Z,21.14
2018-07-14T14:54:11.396Z,21.09
2018-07-14T14:56:41.750Z,21.13
2018-07-14T14:59:11.350Z,21.12
2018-07-14T15:01:41.426Z,21.14
2018-07-14T15:04:11.284Z,21.11
2018-07-14T15:06:41.689Z,21.28
2018-07-14T15:09:10.960Z,21.41
2018-07-14T15:11:40.966Z,21.42
2018-07-14T15:14:10.545Z,21.56
2018-07-14T15:16:40.314Z,21.71
2018-07-14T15:19:10.918Z,22.14
2018-07-14T15:21:40.585Z,22.36
2018-07-14T15:24:10.298Z,22.28
2018-07-14T15:26:40.557Z,22.22
2018-07-14T15:29:10.346Z,21.82
2018-07-14T15:31:40.349Z,21.80
2018-07-14T15:34:10.328Z,21.77
2018-07-14T15:36:40.398Z,21.98
2018-07-14T15:39:10.869Z,22.47
2018-07-14T15:41:40.704Z,23.02
2018-07-14T15:44:10.658Z,23.64
2018-07-14T15:46:40.375Z,24.41
2018-07-14T15:49:10.206Z,25.03
2018-07-14T15:51:40.018Z,25.66
2018-07-14T15:54:13.598Z,25.79
2018-07-14T15:56:43.233Z,25.35
2018-07-14T15:59:12.945Z,24.65
2018-07-14T16:01:43.003Z,23.67
2018-07-14T16:04:12.826Z,23.18
2018-07-14T16:06:42.739Z,22.44
2018-07-14T16:09:14.381Z,22.17
2018-07-14T16:11:43.948Z,21.84
2018-07-14T16:14:13.593Z,21.64
2018-07-14T16:16:43.649Z,21.49
2018-07-14T16:19:14.998Z,21.58
2018-07-14T16:21:44.573Z,21.59
2018-07-14T16:24:14.445Z,21.50
2018-07-14T16:26:44.146Z,21.43
2018-07-14T16:29:13.560Z,21.20
2018-07-14T16:31:43.011Z,21.28
2018-07-14T16:34:12.405Z,21.22
2018-07-14T17:58:43.468Z,20.92
2018-07-14T18:01:13.403Z,21.50
2018-07-14T18:03:43.114Z,21.94
2018-07-14T18:06:13.979Z,22.21
2018-07-14T18:08:43.629Z,21.78
2018-07-14T18:11:12.888Z,21.37
2018-07-14T18:13:42.700Z,21.05
2018-07-14T18:16:12.959Z,20.93
2018-07-14T18:18:43.240Z,20.73
2018-07-14T18:21:12.676Z,20.96
2018-07-14T18:23:41.931Z,21.27
2018-07-14T18:26:11.470Z,21.76
2018-07-14T18:28:41.106Z,22.04
2018-07-14T18:31:10.610Z,22.23
2018-07-14T18:33:40.399Z,22.25
2018-07-14T18:36:09.797Z,22.29
2018-07-14T18:38:39.436Z,22.34
2018-07-14T18:41:09.078Z,22.10
2018-07-14T18:43:39.240Z,21.65
2018-07-14T18:46:09.031Z,21.24
2018-07-14T18:48:42.851Z,20.97
2018-07-14T18:51:12.219Z,20.67
2018-07-14T18:53:41.623Z,20.40
2018-07-14T18:56:11.816Z,20.13
2018-07-14T18:58:41.913Z,20.02
2018-07-14T19:01:11.361Z,19.84
2018-07-14T19:03:40.893Z,19.76
2018-07-14T19:06:10.544Z,19.78
2018-07-14T19:08:41.069Z,19.79
2018-07-14T19:11:10.551Z,19.75
2018-07-14T19:13:40.084Z,19.66
2018-07-14T19:16:09.862Z,19.45
2018-07-14T19:18:40.421Z,19.33
2018-07-14T19:21:09.827Z,19.19
2018-07-14T19:23:39.306Z,19.09
2018-07-14T19:26:10.188Z,18.96
2018-07-14T19:28:41.008Z,18.88
2018-07-14T19:31:11.203Z,18.81
2018-07-14T19:33:40.871Z,18.75
2018-07-14T19:36:10.508Z,18.65
2018-07-14T19:38:42.439Z,18.59
2018-07-14T19:41:11.715Z,18.51
2018-07-14T19:43:42.525Z,18.46
2018-07-14T19:46:12.479Z,18.36
2018-07-14T19:48:42.182Z,18.28
2018-07-14T19:51:12.482Z,18.23
2018-07-14T19:53:42.479Z,18.18
2018-07-14T19:56:12.435Z,18.04
2018-07-14T19:58:42.227Z,18.03
2018-07-14T20:01:11.579Z,17.89
2018-07-14T20:03:40.962Z,17.81
2018-07-14T20:06:10.919Z,17.75
2018-07-14T20:08:40.894Z,17.71
2018-07-14T20:11:10.702Z,17.68
2018-07-14T20:13:40.497Z,17.65
2018-07-14T20:16:11.036Z,17.60
2018-07-14T20:18:40.950Z,17.49
2018-07-14T20:21:10.760Z,17.44
2018-07-14T20:23:40.372Z,17.35
2018-07-14T20:26:10.280Z,17.34
2018-07-14T20:28:39.874Z,17.40
2018-07-14T20:31:09.722Z,17.23
2018-07-14T20:33:39.432Z,17.23
2018-07-14T20:36:09.121Z,17.17
2018-07-14T20:38:39.513Z,17.06
2018-07-14T20:41:09.315Z,17.07
2018-07-14T20:43:38.939Z,17.06
2018-07-14T20:46:08.693Z,16.95
2018-07-14T20:48:38.471Z,16.85
2018-07-14T20:51:08.470Z,16.83
2018-07-14T20:53:38.530Z,16.84
2018-07-14T20:56:08.534Z,16.73
2018-07-14T20:58:38.688Z,16.68
2018-07-14T21:01:09.832Z,16.53
2018-07-14T21:03:39.428Z,16.49
2018-07-14T21:06:09.730Z,16.55
2018-07-14T21:08:39.850Z,16.61
2018-07-14T21:11:10.153Z,16.62
2018-07-14T21:13:40.604Z,16.59
2018-07-14T21:16:10.515Z,16.57
2018-07-14T21:18:40.517Z,16.53
2018-07-14T21:21:11.447Z,16.44
2018-07-14T21:23:41.762Z,16.26
2018-07-14T21:26:12.096Z,16.31
2018-07-14T21:28:42.495Z,16.28
2018-07-14T21:31:13.022Z,16.28
2018-07-14T21:33:42.849Z,16.13
2018-07-14T21:36:13.521Z,16.19
2018-07-14T21:38:43.717Z,16.10
2018-07-14T21:41:13.910Z,16.03
2018-07-14T21:43:43.791Z,15.98
2018-07-14T21:46:13.399Z,15.96
2018-07-14T21:48:43.157Z,15.90
2018-07-14T21:51:13.071Z,15.75
2018-07-14T21:53:42.573Z,15.76
2018-07-14T21:56:12.937Z,15.65
2018-07-14T21:58:42.541Z,15.54
2018-07-14T22:01:17.309Z,15.46
2018-07-14T22:03:46.693Z,15.45
2018-07-14T22:06:16.075Z,15.44
2018-07-14T22:08:45.637Z,15.45
2018-07-14T22:11:16.578Z,15.54
2018-07-14T22:13:48.099Z,15.50
2018-07-14T22:16:17.518Z,15.54
2018-07-14T22:18:46.983Z,15.50
2018-07-14T22:21:16.347Z,15.48
2018-07-14T22:23:45.697Z,15.42
2018-07-14T22:26:15.411Z,15.36
2018-07-14T22:28:44.909Z,15.41
2018-07-14T22:31:17.188Z,15.40
2018-07-14T22:33:46.711Z,15.37
2018-07-14T22:36:16.292Z,15.36
2018-07-14T22:38:45.855Z,15.30
2018-07-14T22:41:15.571Z,15.27
2018-07-14T22:43:45.156Z,15.22
2018-07-14T22:46:14.871Z,15.18
2018-07-14T22:48:46.255Z,15.14
2018-07-14T22:51:17.128Z,15.09
2018-07-14T22:53:46.751Z,15.03
2018-07-14T22:56:16.423Z,15.05
2018-07-14T22:58:46.421Z,15.05
2018-07-14T23:01:16.165Z,14.99
2018-07-14T23:03:46.284Z,14.97
2018-07-14T23:06:15.917Z,14.91
2018-07-14T23:08:45.590Z,14.86
2018-07-14T23:11:15.634Z,14.80
2018-07-14T23:13:45.745Z,14.74
2018-07-14T23:16:15.694Z,14.80
2018-07-14T23:18:45.289Z,14.76
2018-07-14T23:21:15.116Z,14.76
2018-07-14T23:23:44.763Z,14.78
2018-07-14T23:26:14.227Z,14.83
2018-07-14T23:28:43.774Z,14.79
2018-07-14T23:31:13.446Z,14.79
2018-07-14T23:33:42.988Z,14.80
2018-07-14T23:36:12.475Z,14.81
2018-07-14T23:38:42.141Z,14.83
2018-07-14T23:41:11.601Z,14.76
2018-07-14T23:43:41.108Z,14.79
2018-07-14T23:46:12.465Z,14.62
2018-07-14T23:48:41.745Z,14.66
2018-07-14T23:51:15.172Z,14.65
2018-07-14T23:53:44.514Z,14.60
2018-07-14T23:56:13.952Z,14.51
2018-07-14T23:58:43.225Z,14.53
